createdAt,value
2022-12-24T00:04:45.806Z,6.80
2022-12-24T00:09:49.684Z,6.78
2022-12-24T00:14:53.556Z,6.74
2022-12-24T00:19:57.437Z,6.71
2022-12-24T00:25:01.362Z,6.68
2022-12-24T00:30:05.680Z,6.68
2022-12-24T00:35:09.723Z,6.69
2022-12-24T00:40:13.718Z,6.70
2022-12-24T00:45:17.597Z,6.70
2022-12-24T00:50:21.317Z,6.70
2022-12-24T00:55:25.166Z,6.71
2022-12-24T01:00:29.017Z,6.71
2022-12-24T01:05:32.832Z,6.73
2022-12-24T01:10:36.574Z,6.77
2022-12-24T01:15:40.358Z,6.80
2022-12-24T01:20:44.262Z,6.79
2022-12-24T01:25:48.087Z,6.77
2022-12-24T01:30:51.897Z,6.74
2022-12-24T01:35:55.892Z,6.73
2022-12-24T01:41:18.162Z,6.74
2022-12-24T01:46:29.297Z,6.74
2022-12-24T01:51:42.977Z,6.75
2022-12-24T01:56:54.672Z,6.72
2022-12-24T02:01:58.828Z,6.69
2022-12-24T02:07:02.902Z,6.66
2022-12-24T02:12:07.339Z,6.65
2022-12-24T02:17:19.654Z,6.64
2022-12-24T02:22:57.583Z,6.66
2022-12-24T02:28:27.737Z,6.67
2022-12-24T02:34:13.273Z,6.68
2022-12-24T02:39:24.764Z,6.68
2022-12-24T02:44:31.054Z,6.68
2022-12-24T02:49:36.466Z,6.69
2022-12-24T02:54:40.305Z,6.68
2022-12-24T03:00:05.278Z,6.67
2022-12-24T03:05:18.146Z,6.64
2022-12-24T03:10:30.230Z,6.63
2022-12-24T03:15:34.609Z,6.63
2022-12-24T03:20:41.797Z,6.63
2022-12-24T03:25:46.080Z,6.65
2022-12-24T03:30:49.981Z,6.66
2022-12-24T03:35:53.696Z,6.68
2022-12-24T03:40:57.533Z,6.70
2022-12-24T03:46:06.857Z,6.73
2022-12-24T03:51:22.276Z,6.75
2022-12-24T03:56:26.550Z,6.78
2022-12-24T04:01:30.919Z,6.79
2022-12-24T04:06:35.082Z,6.81
2022-12-24T04:11:38.898Z,6.81
2022-12-24T04:16:42.665Z,6.82
2022-12-24T04:21:46.470Z,6.83
2022-12-24T04:26:50.246Z,6.93
2022-12-24T04:31:54.001Z,7.13
2022-12-24T04:36:57.735Z,7.34
2022-12-24T04:42:01.628Z,7.52
2022-12-24T04:47:05.409Z,7.67
2022-12-24T04:52:09.146Z,7.84
2022-12-24T04:57:12.986Z,7.99
2022-12-24T05:02:17.090Z,8.13
2022-12-24T05:07:21.347Z,8.17
2022-12-24T05:12:25.174Z,8.21
2022-12-24T05:17:28.966Z,8.22
2022-12-24T05:22:51.428Z,8.22
2022-12-24T05:27:55.232Z,8.21
2022-12-24T05:32:59.108Z,8.19
2022-12-24T05:38:02.964Z,8.20
2022-12-24T05:43:06.740Z,8.25
2022-12-24T05:48:10.414Z,8.33
2022-12-24T05:53:14.257Z,8.42
2022-12-24T05:58:18.197Z,8.48
2022-12-24T06:03:22.012Z,8.48
2022-12-24T06:08:25.803Z,8.48
2022-12-24T06:13:30.226Z,8.48
2022-12-24T06:18:35.369Z,8.49
2022-12-24T06:23:40.938Z,8.51
2022-12-24T06:28:45.550Z,8.52
2022-12-24T06:33:50.000Z,8.53
2022-12-24T06:38:55.012Z,8.55
2022-12-24T06:43:58.959Z,8.56
2022-12-24T06:49:03.128Z,8.57
2022-12-24T06:54:06.870Z,8.57
2022-12-24T06:59:10.617Z,8.56
2022-12-24T07:04:19.919Z,8.56
2022-12-24T07:09:24.462Z,8.55
2022-12-24T07:14:28.234Z,8.56
2022-12-24T07:19:31.980Z,8.56
2022-12-24T07:24:35.787Z,8.55
2022-12-24T07:29:40.848Z,8.54
2022-12-24T07:34:44.565Z,8.54
2022-12-24T07:39:48.440Z,8.53
2022-12-24T07:44:52.199Z,8.50
2022-12-24T07:49:56.025Z,8.49
2022-12-24T07:54:59.765Z,8.48
2022-12-24T08:00:04.545Z,8.48
2022-12-24T08:05:15.705Z,8.47
2022-12-24T08:10:19.565Z,8.48
2022-12-24T08:15:23.320Z,8.53
2022-12-24T08:20:27.344Z,8.55
2022-12-24T08:25:31.107Z,8.48
2022-12-24T08:30:35.205Z,8.44
2022-12-24T08:35:38.995Z,8.45
2022-12-24T08:41:16.946Z,8.43
2022-12-24T08:46:43.863Z,8.38
2022-12-24T08:51:51.508Z,8.32
2022-12-24T08:56:57.055Z,8.33
2022-12-24T09:02:08.117Z,8.35
2022-12-24T09:07:16.983Z,8.37
2022-12-24T09:12:20.930Z,8.31
2022-12-24T09:17:24.838Z,8.23
2022-12-24T09:22:30.287Z,8.15
2022-12-24T09:27:34.590Z,8.08
2022-12-24T09:32:38.398Z,8.05
2022-12-24T09:37:42.087Z,8.08
2022-12-24T09:42:53.863Z,8.09
2022-12-24T09:48:05.891Z,8.10
2022-12-24T09:53:51.507Z,8.09
2022-12-24T09:58:59.980Z,8.10
2022-12-24T10:04:08.103Z,8.10
2022-12-24T10:09:20.334Z,8.08
2022-12-24T10:14:39.907Z,8.01
2022-12-24T10:20:26.140Z,7.96
2022-12-24T10:25:43.453Z,8.00
2022-12-24T10:30:50.250Z,8.04
2022-12-24T10:35:55.445Z,8.05
2022-12-24T10:41:00.970Z,8.01
2022-12-24T10:46:22.694Z,7.93
2022-12-24T10:51:38.292Z,7.87
2022-12-24T10:56:45.124Z,7.82
2022-12-24T11:01:50.575Z,7.76
2022-12-24T11:07:03.579Z,7.66
2022-12-24T11:12:17.662Z,7.61
2022-12-24T11:17:22.819Z,7.62
2022-12-24T11:22:31.792Z,7.64
2022-12-24T11:27:46.317Z,7.60
2022-12-24T11:32:52.179Z,7.58
2022-12-24T11:37:58.925Z,7.56
2022-12-24T11:43:09.592Z,7.58
2022-12-24T11:48:30.930Z,7.63
2022-12-24T11:54:03.195Z,7.68
2022-12-24T11:59:21.327Z,7.85
2022-12-24T12:04:28.380Z,7.91
2022-12-24T12:09:35.087Z,7.96
2022-12-24T12:15:06.341Z,7.99
2022-12-24T12:20:36.724Z,8.05
2022-12-24T12:26:31.128Z,8.12
2022-12-24T12:31:48.403Z,8.24
2022-12-24T12:36:57.796Z,8.34
2022-12-24T12:42:01.848Z,8.40
2022-12-24T12:47:24.776Z,8.56
2022-12-24T12:53:13.617Z,8.71
2022-12-24T12:58:42.236Z,8.96
2022-12-24T13:03:58.909Z,9.00
2022-12-24T13:09:14.969Z,8.98
2022-12-24T13:14:18.675Z,8.94
2022-12-24T13:19:44.007Z,8.95
2022-12-24T13:24:56.901Z,8.97
2022-12-24T13:30:12.190Z,8.92
2022-12-24T13:35:21.575Z,8.86
2022-12-24T13:40:27.060Z,8.81
2022-12-24T13:45:31.169Z,8.82
2022-12-24T13:50:43.674Z,8.83
2022-12-24T13:55:55.677Z,8.86
2022-12-24T14:01:01.990Z,8.86
2022-12-24T14:06:43.777Z,8.79
2022-12-24T14:11:56.621Z,8.76
2022-12-24T14:17:19.186Z,8.76
2022-12-24T14:22:23.507Z,8.80
2022-12-24T14:27:41.119Z,8.83
2022-12-24T14:32:45.639Z,8.81
2022-12-24T14:38:03.304Z,8.73
2022-12-24T14:43:30.714Z,8.63
2022-12-24T14:48:49.820Z,8.43
2022-12-24T14:54:03.522Z,8.22
2022-12-24T14:59:19.558Z,8.02
2022-12-24T15:04:23.683Z,8.09
2022-12-24T15:09:30.139Z,8.16
2022-12-24T15:14:40.955Z,8.16
2022-12-24T15:19:48.521Z,8.10
2022-12-24T15:24:52.905Z,8.06
2022-12-24T15:29:58.011Z,8.04
2022-12-24T15:35:01.843Z,7.97
2022-12-24T15:40:08.712Z,7.83
2022-12-24T15:45:26.666Z,7.67
2022-12-24T15:50:35.100Z,7.55
2022-12-24T15:55:40.794Z,7.62
2022-12-24T16:00:45.683Z,7.68
2022-12-24T16:06:02.724Z,7.69
2022-12-24T16:11:06.376Z,7.65
2022-12-24T16:16:13.511Z,7.50
2022-12-24T16:21:30.868Z,7.27
2022-12-24T16:26:35.713Z,7.09
2022-12-24T16:31:54.337Z,6.88
2022-12-24T16:36:59.687Z,6.71
2022-12-24T16:42:23.274Z,6.59
2022-12-24T16:47:33.745Z,6.66
2022-12-24T16:52:41.800Z,6.85
2022-12-24T16:57:45.605Z,7.02
2022-12-24T17:02:50.378Z,7.16
2022-12-24T17:07:54.778Z,7.23
2022-12-24T17:12:58.641Z,7.28
2022-12-24T17:18:02.389Z,7.23
2022-12-24T17:23:06.224Z,7.16
2022-12-24T17:28:09.878Z,7.13
2022-12-24T17:33:15.079Z,7.11
2022-12-24T17:38:19.024Z,7.12
2022-12-24T17:43:22.796Z,7.18
2022-12-24T17:48:26.579Z,7.25
2022-12-24T17:53:30.180Z,7.32
2022-12-24T17:58:34.337Z,7.32
2022-12-24T18:03:38.095Z,7.33
2022-12-24T18:08:43.207Z,7.34
2022-12-24T18:13:47.984Z,7.35
2022-12-24T18:18:52.793Z,7.31
2022-12-24T18:23:57.309Z,7.29
2022-12-24T18:29:04.885Z,7.22
2022-12-24T18:34:13.053Z,7.15
2022-12-24T18:39:16.815Z,7.08
2022-12-24T18:44:24.860Z,7.04
2022-12-24T18:49:29.199Z,7.03
2022-12-24T18:54:32.903Z,7.04
2022-12-24T18:59:38.253Z,7.05
2022-12-24T19:04:42.187Z,7.05
2022-12-24T19:09:48.668Z,7.03
2022-12-24T19:14:53.541Z,6.95
2022-12-24T19:19:57.280Z,6.90
2022-12-24T19:25:01.140Z,6.86
2022-12-24T19:30:05.796Z,6.85
2022-12-24T19:35:09.710Z,6.82
2022-12-24T19:40:13.697Z,6.77
2022-12-24T19:45:17.534Z,6.73
2022-12-24T19:50:22.104Z,6.69
2022-12-24T19:55:26.032Z,6.69
2022-12-24T20:00:30.083Z,6.69
2022-12-24T20:05:33.743Z,6.69
2022-12-24T20:10:44.716Z,6.70
2022-12-24T20:15:48.623Z,6.71
2022-12-24T20:20:52.413Z,6.71
2022-12-24T20:26:01.273Z,6.73
2022-12-24T20:31:11.806Z,6.75
2022-12-24T20:36:17.859Z,6.74
2022-12-24T20:41:24.236Z,6.73
2022-12-24T20:46:29.297Z,6.73
2022-12-24T20:51:33.317Z,6.71
2022-12-24T20:56:37.083Z,6.68
2022-12-24T21:01:40.931Z,6.66
2022-12-24T21:06:45.019Z,6.62
2022-12-24T21:11:51.992Z,6.57
2022-12-24T21:16:56.478Z,6.47
2022-12-24T21:22:00.486Z,6.34
2022-12-24T21:27:04.335Z,6.24
2022-12-24T21:32:08.242Z,6.13
2022-12-24T21:37:12.134Z,6.03
2022-12-24T21:42:15.969Z,5.95
2022-12-24T21:47:19.891Z,5.87
2022-12-24T21:52:23.620Z,5.77
2022-12-24T21:57:45.830Z,5.68
2022-12-24T22:02:51.671Z,5.62
2022-12-24T22:08:14.913Z,5.59
2022-12-24T22:13:19.342Z,5.59
2022-12-24T22:18:25.394Z,5.62
2022-12-24T22:23:29.218Z,5.65
2022-12-24T22:28:32.873Z,5.67
2022-12-24T22:33:36.673Z,5.65
2022-12-24T22:38:43.643Z,5.61
2022-12-24T22:43:47.352Z,5.61
2022-12-24T22:48:51.199Z,5.68
2022-12-24T22:53:55.056Z,5.74
2022-12-24T22:58:59.298Z,5.72
2022-12-24T23:04:04.019Z,5.63
2022-12-24T23:09:09.841Z,5.47
2022-12-24T23:14:37.900Z,5.35
2022-12-24T23:19:42.203Z,5.34
2022-12-24T23:24:48.765Z,5.25
2022-12-24T23:29:52.593Z,5.18
2022-12-24T23:34:56.324Z,5.13
2022-12-24T23:40:00.294Z,5.05
2022-12-24T23:45:04.460Z,4.99
2022-12-24T23:50:08.959Z,5.01
2022-12-24T23:55:13.279Z,5.08
